createdAt,value
2022-12-09T00:01:07.291Z,25.60
2022-12-09T00:03:35.615Z,25.10
2022-12-09T00:06:06.981Z,26.33
2022-12-09T00:08:34.928Z,27.30
2022-12-09T00:11:02.650Z,26.13
2022-12-09T00:13:31.101Z,27.50
2022-12-09T00:16:00.183Z,28.80
2022-12-09T00:18:29.848Z,30.50
2022-12-09T00:20:58.910Z,32.90
2022-12-09T00:23:26.662Z,32.30
2022-12-09T00:25:57.725Z,31.03
2022-12-09T00:28:25.761Z,33.80
2022-12-09T00:30:53.465Z,33.90
2022-12-09T00:33:22.531Z,33.63
2022-12-09T00:35:50.494Z,34.23
2022-12-09T00:38:18.351Z,34.53
2022-12-09T00:40:45.955Z,34.70
2022-12-09T00:43:13.937Z,35.60
2022-12-09T00:45:41.545Z,33.63
2022-12-09T00:48:09.448Z,37.37
2022-12-09T00:50:38.562Z,36.87
2022-12-09T00:53:06.513Z,35.53
2022-12-09T00:55:34.356Z,35.07
2022-12-09T00:58:02.995Z,36.47
2022-12-09T01:00:35.057Z,36.00
2022-12-09T01:03:03.675Z,36.27
2022-12-09T01:05:32.209Z,33.87
2022-12-09T01:08:01.490Z,35.80
2022-12-09T01:10:29.704Z,36.47
2022-12-09T01:12:57.677Z,35.30
2022-12-09T01:15:25.408Z,35.73
2022-12-09T01:17:53.727Z,34.40
2022-12-09T01:20:21.718Z,37.03
2022-12-09T01:22:49.836Z,37.43
2022-12-09T01:25:19.078Z,36.13
2022-12-09T01:27:46.906Z,35.60
2022-12-09T01:30:15.973Z,38.63
2022-12-09T01:32:44.810Z,37.03
2022-12-09T01:35:12.849Z,38.70
2022-12-09T01:37:40.971Z,39.60
2022-12-09T01:40:12.023Z,38.10
2022-12-09T01:42:41.497Z,38.97
2022-12-09T01:45:31.300Z,38.87
2022-12-09T01:48:02.319Z,37.30
2022-12-09T01:50:31.213Z,36.90
2022-12-09T01:52:59.328Z,35.80
2022-12-09T01:55:27.913Z,36.53
2022-12-09T01:57:56.911Z,42.00
2022-12-09T02:00:24.737Z,39.03
2022-12-09T02:02:54.737Z,39.23
2022-12-09T02:05:24.434Z,37.07
2022-12-09T02:07:58.787Z,40.97
2022-12-09T02:10:27.406Z,41.00
2022-12-09T02:13:10.170Z,39.07
2022-12-09T02:15:41.758Z,45.83
2022-12-09T02:18:14.079Z,41.43
2022-12-09T02:20:43.545Z,43.23
2022-12-09T02:23:14.560Z,46.73
2022-12-09T02:25:44.831Z,37.37
2022-12-09T02:28:33.264Z,34.97
2022-12-09T02:31:10.750Z,44.83
2022-12-09T02:33:44.354Z,36.70
2022-12-09T02:36:18.164Z,39.33
2022-12-09T02:38:49.392Z,37.67
2022-12-09T02:41:20.767Z,35.60
2022-12-09T02:43:52.714Z,33.90
2022-12-09T02:46:26.995Z,38.87
2022-12-09T02:48:57.909Z,39.10
2022-12-09T02:51:29.292Z,47.43
2022-12-09T02:53:59.192Z,36.77
2022-12-09T02:56:28.230Z,36.87
2022-12-09T02:58:55.883Z,39.20
2022-12-09T03:01:32.590Z,47.30
2022-12-09T03:04:00.606Z,37.70
2022-12-09T03:06:32.542Z,43.73
2022-12-09T03:09:04.299Z,41.67
2022-12-09T03:11:33.578Z,35.00
2022-12-09T03:14:03.854Z,33.93
2022-12-09T03:16:34.921Z,35.93
2022-12-09T03:19:05.545Z,41.40
2022-12-09T03:21:38.979Z,36.00
2022-12-09T03:24:08.441Z,38.07
2022-12-09T03:26:38.475Z,45.30
2022-12-09T03:29:08.851Z,33.47
2022-12-09T03:31:44.359Z,40.60
2022-12-09T03:34:17.634Z,34.70
2022-12-09T03:36:48.607Z,36.40
2022-12-09T03:39:17.941Z,32.90
2022-12-09T03:41:47.035Z,39.80
2022-12-09T03:44:18.076Z,37.33
2022-12-09T03:46:46.553Z,42.43
2022-12-09T03:49:14.805Z,45.23
2022-12-09T03:51:46.173Z,36.30
2022-12-09T03:54:17.339Z,34.97
2022-12-09T03:56:46.371Z,52.33
2022-12-09T03:59:15.423Z,46.60
2022-12-09T04:01:44.544Z,44.13
2022-12-09T04:04:14.624Z,40.47
2022-12-09T04:06:42.626Z,43.37
2022-12-09T04:09:12.010Z,39.03
2022-12-09T04:11:41.336Z,42.07
2022-12-09T04:14:15.084Z,37.03
2022-12-09T04:16:44.307Z,37.53
2022-12-09T04:19:12.362Z,42.43
2022-12-09T04:21:40.519Z,45.93
2022-12-09T04:24:10.208Z,40.50
2022-12-09T04:26:38.204Z,45.70
2022-12-09T04:29:07.658Z,38.23
2022-12-09T04:31:35.895Z,44.87
2022-12-09T04:34:09.258Z,42.33
2022-12-09T04:36:38.065Z,42.77
2022-12-09T04:39:06.150Z,38.73
2022-12-09T04:41:34.455Z,36.97
2022-12-09T04:44:02.573Z,46.10
2022-12-09T04:46:32.392Z,43.33
2022-12-09T04:49:00.572Z,45.40
2022-12-09T04:51:32.508Z,43.50
2022-12-09T04:54:05.720Z,50.57
2022-12-09T04:56:33.905Z,45.20
2022-12-09T04:59:01.837Z,40.03
2022-12-09T05:01:33.259Z,36.87
2022-12-09T05:04:01.360Z,37.63
2022-12-09T05:06:29.674Z,32.80
2022-12-09T05:08:58.056Z,34.33
2022-12-09T05:11:26.099Z,32.70
2022-12-09T05:13:54.659Z,35.10
2022-12-09T05:16:23.272Z,35.67
2022-12-09T05:18:53.227Z,31.43
2022-12-09T05:21:21.895Z,34.90
2022-12-09T05:23:50.527Z,34.17
2022-12-09T05:26:19.471Z,32.37
2022-12-09T05:28:47.671Z,38.23
2022-12-09T05:31:17.306Z,31.53
2022-12-09T05:33:46.666Z,37.93
2022-12-09T05:36:17.212Z,34.93
2022-12-09T05:38:45.254Z,37.20
2022-12-09T05:41:13.495Z,41.13
2022-12-09T05:43:41.727Z,47.30
2022-12-09T05:46:10.060Z,35.30
2022-12-09T05:48:38.338Z,37.00
2022-12-09T05:51:07.979Z,37.40
2022-12-09T05:53:37.333Z,34.90
2022-12-09T05:56:05.874Z,37.47
2022-12-09T05:58:34.926Z,40.27
2022-12-09T06:01:06.350Z,36.10
2022-12-09T06:03:34.991Z,34.13
2022-12-09T06:06:06.318Z,40.70
2022-12-09T06:08:34.870Z,43.00
2022-12-09T06:11:04.304Z,32.33
2022-12-09T06:13:32.753Z,40.90
2022-12-09T06:16:03.573Z,39.60
2022-12-09T06:18:31.692Z,40.97
2022-12-09T06:21:00.241Z,44.80
2022-12-09T06:23:28.224Z,50.00
2022-12-09T06:25:56.102Z,40.83
2022-12-09T06:28:25.633Z,42.10
2022-12-09T06:30:53.447Z,41.03
2022-12-09T06:33:45.944Z,36.10
2022-12-09T06:36:10.808Z,45.37
2022-12-09T06:38:39.455Z,35.90
2022-12-09T06:41:08.168Z,35.90
2022-12-09T06:43:38.246Z,35.97
2022-12-09T06:46:12.101Z,37.27
2022-12-09T06:48:40.141Z,35.13
2022-12-09T06:51:08.205Z,40.17
2022-12-09T06:53:36.774Z,35.00
2022-12-09T06:56:11.136Z,34.73
2022-12-09T06:58:42.185Z,39.10
2022-12-09T07:01:13.794Z,37.70
2022-12-09T07:03:42.157Z,41.73
2022-12-09T07:06:14.563Z,37.60
2022-12-09T07:08:42.800Z,45.10
2022-12-09T07:11:11.277Z,36.50
2022-12-09T07:13:41.216Z,41.53
2022-12-09T07:16:09.485Z,37.90
2022-12-09T07:18:37.419Z,38.40
2022-12-09T07:21:09.277Z,39.67
2022-12-09T07:23:37.351Z,34.50
2022-12-09T07:26:07.384Z,37.80
2022-12-09T07:28:36.474Z,33.60
2022-12-09T07:31:06.448Z,46.03
2022-12-09T07:33:34.589Z,36.30
2022-12-09T07:36:03.107Z,40.37
2022-12-09T07:38:31.042Z,35.93
2022-12-09T07:41:05.719Z,35.70
2022-12-09T07:43:34.201Z,34.70
2022-12-09T07:46:08.501Z,38.27
2022-12-09T07:48:36.945Z,41.07
2022-12-09T07:51:06.058Z,41.27
2022-12-09T07:53:35.956Z,35.03
2022-12-09T07:56:04.675Z,36.70
2022-12-09T07:58:32.810Z,34.73
2022-12-09T08:01:07.133Z,36.00
2022-12-09T08:03:35.042Z,39.50
2022-12-09T08:06:02.900Z,37.97
2022-12-09T08:08:33.037Z,37.07
2022-12-09T08:11:06.948Z,39.23
2022-12-09T08:13:35.859Z,39.20
2022-12-09T08:16:04.677Z,41.37
2022-12-09T08:18:34.380Z,39.80
2022-12-09T08:21:05.277Z,38.53
2022-12-09T08:23:33.573Z,43.30
2022-12-09T08:26:01.772Z,40.50
2022-12-09T08:28:30.682Z,39.10
2022-12-09T08:30:59.323Z,43.77
2022-12-09T08:33:27.692Z,55.33
2022-12-09T08:35:57.002Z,47.17
2022-12-09T08:38:25.153Z,38.83
2022-12-09T08:40:52.951Z,32.80
2022-12-09T08:43:22.208Z,37.77
2022-12-09T08:45:50.141Z,39.27
2022-12-09T08:48:18.409Z,33.47
2022-12-09T08:50:46.211Z,33.70
2022-12-09T08:53:15.465Z,32.80
2022-12-09T08:55:43.198Z,32.90
2022-12-09T08:58:12.857Z,36.03
2022-12-09T09:00:40.648Z,34.30
2022-12-09T09:03:09.775Z,36.10
2022-12-09T09:05:38.263Z,37.90
2022-12-09T09:08:06.479Z,35.67
2022-12-09T09:10:37.434Z,34.53
2022-12-09T09:13:05.740Z,33.87
2022-12-09T09:15:33.729Z,33.23
2022-12-09T09:18:02.211Z,32.10
2022-12-09T09:20:30.875Z,32.87
2022-12-09T09:23:03.036Z,35.13
2022-12-09T09:25:32.432Z,35.60
2022-12-09T09:28:01.684Z,35.10
2022-12-09T09:30:30.550Z,34.60
2022-12-09T09:32:58.538Z,33.03
2022-12-09T09:35:26.629Z,33.80
2022-12-09T09:37:55.474Z,36.63
2022-12-09T09:40:24.146Z,37.77
2022-12-09T09:42:53.664Z,41.53
2022-12-09T09:45:24.882Z,36.80
2022-12-09T09:47:56.705Z,37.03
2022-12-09T09:50:31.869Z,37.10
2022-12-09T09:53:02.536Z,40.30
2022-12-09T09:55:36.114Z,37.50
2022-12-09T09:58:07.979Z,37.07
2022-12-09T10:00:43.344Z,38.23
2022-12-09T10:03:15.186Z,34.80
2022-12-09T10:05:47.928Z,36.20
2022-12-09T10:08:22.829Z,38.20
2022-12-09T10:10:57.496Z,49.50
2022-12-09T10:13:32.062Z,39.50
2022-12-09T10:16:09.378Z,34.37
2022-12-09T10:18:40.432Z,36.33
2022-12-09T10:21:15.729Z,37.97
2022-12-09T10:23:44.339Z,31.97
2022-12-09T10:26:15.764Z,32.13
2022-12-09T10:28:47.731Z,32.37
2022-12-09T10:31:18.018Z,34.37
2022-12-09T10:33:46.312Z,37.70
2022-12-09T10:36:21.396Z,35.43
2022-12-09T10:38:49.503Z,41.13
2022-12-09T10:41:42.856Z,49.20
2022-12-09T10:44:20.297Z,39.40
2022-12-09T10:46:50.253Z,45.13
2022-12-09T10:49:20.146Z,42.80
2022-12-09T10:51:50.172Z,52.93
2022-12-09T10:54:22.145Z,42.33
2022-12-09T10:57:05.059Z,42.83
2022-12-09T10:59:33.434Z,37.90
2022-12-09T11:02:03.748Z,37.07
2022-12-09T11:04:33.085Z,39.90
2022-12-09T11:07:05.235Z,42.10
2022-12-09T11:09:34.917Z,53.43
2022-12-09T11:12:05.635Z,62.17
2022-12-09T11:14:35.840Z,39.10
2022-12-09T11:17:15.538Z,40.10
2022-12-09T11:19:44.739Z,39.47
2022-12-09T11:22:29.269Z,45.10
2022-12-09T11:25:07.020Z,43.20
2022-12-09T11:27:36.164Z,40.20
2022-12-09T11:30:13.152Z,41.13
2022-12-09T11:32:59.752Z,41.37
2022-12-09T11:35:32.293Z,43.50
2022-12-09T11:38:02.249Z,43.10
2022-12-09T11:40:31.044Z,42.63
2022-12-09T11:42:58.878Z,39.17
2022-12-09T11:45:29.857Z,42.03
2022-12-09T11:50:54.324Z,50.63
2022-12-09T11:53:26.287Z,39.43
2022-12-09T11:55:55.198Z,36.97
2022-12-09T11:58:24.572Z,38.50
2022-12-09T12:00:56.314Z,36.43
2022-12-09T12:03:30.965Z,29.90
2022-12-09T12:06:00.577Z,30.40
2022-12-09T12:08:32.818Z,29.40
2022-12-09T12:11:01.857Z,30.87
2022-12-09T12:13:30.457Z,31.30
2022-12-09T12:16:04.965Z,28.87
2022-12-09T12:18:37.439Z,27.20
2022-12-09T12:21:17.997Z,32.53
2022-12-09T12:23:54.353Z,28.23
2022-12-09T12:26:24.737Z,23.77
2022-12-09T12:29:08.291Z,25.53
2022-12-09T12:31:46.460Z,28.20
2022-12-09T12:34:25.273Z,30.37
2022-12-09T12:37:01.236Z,28.90
2022-12-09T12:39:35.741Z,27.57
2022-12-09T12:42:08.661Z,29.00
2022-12-09T12:45:00.702Z,27.07
2022-12-09T12:47:41.936Z,25.70
2022-12-09T12:50:21.308Z,25.23
2022-12-09T12:52:56.628Z,26.30
2022-12-09T12:55:32.032Z,23.00
2022-12-09T12:58:06.143Z,25.80
2022-12-09T13:00:37.093Z,26.00
2022-12-09T13:03:11.450Z,25.43
2022-12-09T13:05:43.218Z,24.90
2022-12-09T13:08:17.649Z,24.37
2022-12-09T13:10:46.655Z,24.63
2022-12-09T13:13:18.747Z,24.67
2022-12-09T13:15:47.622Z,25.70
2022-12-09T13:18:17.232Z,24.00
2022-12-09T13:20:48.700Z,25.30
2022-12-09T13:23:23.017Z,25.43
2022-12-09T13:25:58.115Z,25.93
2022-12-09T13:28:27.872Z,28.10
2022-12-09T13:30:57.886Z,26.23
2022-12-09T13:33:34.772Z,25.73
2022-12-09T13:36:07.309Z,29.63
2022-12-09T13:38:39.837Z,26.70
2022-12-09T13:41:26.276Z,24.90
2022-12-09T13:43:56.579Z,36.63
2022-12-09T13:46:25.177Z,29.80
2022-12-09T13:48:53.709Z,28.43
2022-12-09T13:51:23.265Z,26.17
2022-12-09T13:53:53.561Z,24.60
2022-12-09T13:56:26.953Z,25.93
2022-12-09T13:59:00.428Z,25.93
2022-12-09T14:01:31.057Z,25.57
2022-12-09T14:04:03.617Z,29.10
2022-12-09T14:06:34.690Z,26.50
2022-12-09T14:09:04.558Z,25.97
2022-12-09T14:11:47.466Z,24.13
2022-12-09T14:14:33.785Z,23.40
2022-12-09T14:17:02.484Z,23.90
2022-12-09T14:19:51.164Z,27.97
2022-12-09T14:22:43.364Z,27.10
2022-12-09T14:25:33.436Z,25.77
2022-12-09T14:28:16.634Z,25.60
2022-12-09T14:30:51.038Z,24.70
2022-12-09T14:33:23.358Z,25.70
2022-12-09T14:35:52.264Z,24.27
2022-12-09T14:38:24.527Z,22.70
2022-12-09T14:40:53.677Z,23.60
2022-12-09T14:43:50.387Z,23.30
2022-12-09T14:46:25.241Z,23.27
2022-12-09T14:48:55.147Z,22.50
2022-12-09T14:51:24.518Z,24.27
2022-12-09T14:53:55.609Z,22.93
2022-12-09T14:56:24.515Z,23.37
2022-12-09T14:58:53.731Z,24.60
2022-12-09T15:01:23.184Z,23.67
2022-12-09T15:03:51.981Z,22.37
2022-12-09T15:06:20.167Z,23.67
2022-12-09T15:08:48.244Z,24.30
2022-12-09T15:11:17.895Z,23.50
2022-12-09T15:13:47.762Z,25.10
2022-12-09T15:16:16.910Z,25.53
2022-12-09T15:18:46.745Z,25.10
2022-12-09T15:21:23.650Z,24.30
2022-12-09T15:23:51.472Z,26.90
2022-12-09T15:26:20.537Z,24.57
2022-12-09T15:28:49.277Z,22.03
2022-12-09T15:31:18.565Z,22.97
2022-12-09T15:33:50.587Z,24.00
2022-12-09T15:36:19.639Z,26.07
2022-12-09T15:38:51.497Z,25.20
2022-12-09T15:41:37.873Z,23.90
2022-12-09T15:44:08.477Z,24.30
2022-12-09T15:46:38.959Z,25.60
2022-12-09T15:49:10.231Z,28.30
2022-12-09T15:51:39.410Z,28.80
2022-12-09T15:54:08.696Z,26.33
2022-12-09T15:56:38.848Z,25.00
2022-12-09T15:59:08.254Z,25.93
2022-12-09T16:01:36.154Z,26.17
2022-12-09T16:04:04.937Z,24.70
2022-12-09T16:06:35.838Z,25.83
2022-12-09T16:09:04.598Z,24.57
2022-12-09T16:11:36.012Z,27.00
2022-12-09T16:14:04.941Z,26.00
2022-12-09T16:16:35.122Z,24.70
2022-12-09T16:19:03.046Z,24.67
2022-12-09T16:21:37.261Z,25.60
2022-12-09T16:24:12.592Z,21.90
2022-12-09T16:26:45.314Z,22.37
2022-12-09T16:29:16.930Z,35.70
2022-12-09T16:31:44.905Z,24.93
2022-12-09T16:34:20.577Z,27.07
2022-12-09T16:36:54.191Z,25.87
2022-12-09T16:39:42.949Z,27.63
2022-12-09T16:42:22.341Z,28.00
2022-12-09T16:44:50.484Z,26.50
2022-12-09T16:47:18.882Z,28.33
2022-12-09T16:49:47.996Z,26.20
2022-12-09T16:52:16.863Z,25.80
2022-12-09T16:54:45.835Z,27.33
2022-12-09T16:57:14.184Z,28.70
2022-12-09T16:59:43.585Z,28.80
2022-12-09T17:02:15.275Z,30.13
2022-12-09T17:04:43.033Z,28.70
2022-12-09T17:07:11.022Z,29.33
2022-12-09T17:09:38.734Z,32.03
2022-12-09T17:12:06.606Z,30.63
2022-12-09T17:14:34.417Z,31.03
2022-12-09T17:17:03.692Z,33.73
2022-12-09T17:19:33.435Z,35.70
2022-12-09T17:22:02.733Z,35.07
2022-12-09T17:24:30.581Z,30.80
2022-12-09T17:26:58.238Z,27.80
2022-12-09T17:29:26.145Z,29.30
2022-12-09T17:31:54.005Z,26.90
2022-12-09T17:34:23.028Z,27.13
2022-12-09T17:36:50.946Z,28.23
2022-12-09T17:39:20.189Z,28.20
2022-12-09T17:41:49.775Z,27.13
2022-12-09T17:44:17.711Z,27.90
2022-12-09T17:46:45.540Z,28.87
2022-12-09T17:49:13.333Z,27.97
2022-12-09T17:51:43.959Z,25.50
2022-12-09T17:54:11.626Z,24.87
2022-12-09T17:56:39.395Z,24.37
2022-12-09T17:59:08.566Z,25.77
2022-12-09T18:01:37.065Z,26.00
2022-12-09T18:04:08.909Z,24.83
2022-12-09T18:06:37.130Z,26.20
2022-12-09T18:09:07.133Z,25.10
2022-12-09T18:11:35.916Z,24.60
2022-12-09T18:14:03.766Z,24.10
2022-12-09T18:16:31.917Z,23.73
2022-12-09T18:19:02.217Z,23.90
2022-12-09T18:21:29.873Z,23.57
2022-12-09T18:23:57.640Z,24.90
2022-12-09T18:26:30.661Z,25.60
2022-12-09T18:29:00.001Z,23.70
2022-12-09T18:31:28.021Z,23.83
2022-12-09T18:33:55.757Z,25.90
2022-12-09T18:36:24.892Z,24.43
2022-12-09T18:38:53.838Z,24.13
2022-12-09T18:41:22.753Z,22.83
2022-12-09T18:43:52.975Z,20.43
2022-12-09T18:46:25.669Z,22.93
2022-12-09T18:48:58.190Z,22.60
2022-12-09T18:51:26.798Z,21.80
2022-12-09T18:53:55.086Z,19.87
2022-12-09T18:56:22.973Z,19.50
2022-12-09T18:59:09.067Z,21.47
2022-12-09T19:01:39.348Z,21.00
2022-12-09T19:04:08.713Z,21.20
2022-12-09T19:06:37.221Z,20.03
2022-12-09T19:09:05.859Z,20.00
2022-12-09T19:11:34.390Z,22.63
2022-12-09T19:14:04.736Z,21.10
2022-12-09T19:16:32.829Z,22.20
2022-12-09T19:19:05.669Z,22.23
2022-12-09T19:21:37.385Z,23.07
2022-12-09T19:24:05.344Z,21.37
2022-12-09T19:26:34.323Z,21.80
2022-12-09T19:29:04.579Z,20.83
2022-12-09T19:31:33.409Z,20.40
2022-12-09T19:34:02.402Z,19.67
2022-12-09T19:36:34.012Z,21.60
2022-12-09T19:39:02.873Z,23.87
2022-12-09T19:41:30.574Z,23.00
2022-12-09T19:43:59.342Z,21.93
2022-12-09T19:46:28.438Z,23.80
2022-12-09T19:48:56.457Z,22.57
2022-12-09T19:51:25.145Z,22.13
2022-12-09T19:53:53.514Z,23.53
2022-12-09T19:56:21.557Z,23.00
2022-12-09T19:58:49.824Z,25.03
2022-12-09T20:01:18.285Z,22.60
2022-12-09T20:03:48.316Z,22.97
2022-12-09T20:06:17.136Z,24.07
2022-12-09T20:08:45.188Z,25.93
2022-12-09T20:11:14.511Z,26.20
2022-12-09T20:13:42.835Z,22.60
2022-12-09T20:16:12.096Z,24.17
2022-12-09T20:18:40.301Z,23.00
2022-12-09T20:21:10.546Z,23.30
2022-12-09T20:23:39.144Z,23.80
2022-12-09T20:26:07.560Z,22.40
2022-12-09T20:28:35.868Z,25.97
2022-12-09T20:31:04.039Z,21.97
2022-12-09T20:33:31.735Z,24.27
2022-12-09T20:36:05.512Z,22.60
2022-12-09T20:38:36.186Z,25.00
2022-12-09T20:41:05.433Z,22.40
2022-12-09T20:43:39.117Z,22.47
2022-12-09T20:46:09.062Z,20.87
2022-12-09T20:48:37.888Z,21.03
2022-12-09T20:51:06.178Z,22.67
2022-12-09T20:53:33.947Z,24.83
2022-12-09T20:56:03.457Z,20.20
2022-12-09T20:58:31.362Z,21.65
2022-12-09T21:01:05.406Z,22.47
2022-12-09T21:03:33.281Z,24.63
2022-12-09T21:06:01.055Z,23.97
2022-12-09T21:08:31.971Z,24.13
2022-12-09T21:11:05.366Z,21.57
2022-12-09T21:13:36.074Z,23.00
2022-12-09T21:16:05.663Z,23.73
2022-12-09T21:18:33.932Z,23.27
2022-12-09T21:21:02.858Z,20.53
2022-12-09T21:23:34.767Z,22.80
2022-12-09T21:26:08.024Z,23.77
2022-12-09T21:28:36.207Z,21.73
2022-12-09T21:31:07.968Z,25.07
2022-12-09T21:33:35.860Z,22.87
2022-12-09T21:36:05.611Z,20.73
2022-12-09T21:38:33.937Z,17.93
2022-12-09T21:41:04.913Z,20.07
2022-12-09T21:43:35.275Z,19.70
2022-12-09T21:46:03.508Z,22.50
2022-12-09T21:48:31.989Z,20.50
2022-12-09T21:51:02.807Z,23.17
2022-12-09T21:53:30.874Z,22.70
2022-12-09T21:56:02.169Z,22.97
2022-12-09T21:58:30.584Z,25.50
2022-12-09T22:01:00.895Z,23.80
2022-12-09T22:03:28.863Z,20.70
2022-12-09T22:05:58.440Z,23.40
2022-12-09T22:08:27.060Z,21.83
2022-12-09T22:10:54.748Z,24.67
2022-12-09T22:13:22.680Z,22.47
2022-12-09T22:15:50.327Z,20.20
2022-12-09T22:18:20.102Z,21.07
2022-12-09T22:21:23.630Z,19.93
2022-12-09T22:23:35.907Z,18.40
2022-12-09T22:26:05.319Z,23.27
2022-12-09T22:28:33.283Z,20.30
2022-12-09T22:31:01.017Z,20.10
2022-12-09T22:33:30.492Z,21.77
2022-12-09T22:36:02.860Z,21.90
2022-12-09T22:38:32.857Z,17.53
2022-12-09T22:41:03.574Z,17.90
2022-12-09T22:43:36.476Z,20.70
2022-12-09T22:46:06.578Z,22.17
2022-12-09T22:48:36.167Z,22.10
2022-12-09T22:51:05.249Z,22.90
2022-12-09T22:53:32.914Z,21.30
2022-12-09T22:56:02.416Z,18.93
2022-12-09T22:58:30.109Z,20.43
2022-12-09T23:00:59.184Z,21.03
2022-12-09T23:03:27.175Z,25.60
2022-12-09T23:05:57.748Z,20.07
2022-12-09T23:08:25.961Z,22.80
2022-12-09T23:10:54.347Z,18.43
2022-12-09T23:13:24.075Z,19.80
2022-12-09T23:15:52.318Z,20.20
2022-12-09T23:18:19.932Z,24.80
2022-12-09T23:20:47.691Z,19.80
2022-12-09T23:23:16.695Z,19.20
2022-12-09T23:25:44.434Z,21.53
2022-12-09T23:28:12.579Z,19.93
2022-12-09T23:30:40.714Z,23.23
2022-12-09T23:33:09.165Z,21.80
2022-12-09T23:35:38.331Z,21.73
2022-12-09T23:38:06.033Z,20.60
2022-12-09T23:40:35.130Z,22.87
2022-12-09T23:43:02.988Z,21.67
2022-12-09T23:45:31.151Z,21.30
2022-12-09T23:47:58.723Z,22.70
2022-12-09T23:50:26.598Z,19.53
2022-12-09T23:52:54.309Z,20.10
2022-12-09T23:55:22.399Z,23.00
2022-12-09T23:57:51.402Z,23.77
